createdAt,value
2023-01-26T00:04:30.457Z,65447.22
2023-01-26T00:09:36.307Z,65382.13
2023-01-26T00:14:52.811Z,65325.19
2023-01-26T00:19:59.235Z,65449.34
2023-01-26T00:25:05.588Z,65416.22
2023-01-26T00:30:12.291Z,65342.09
2023-01-26T00:35:17.176Z,65396.94
2023-01-26T00:40:23.493Z,65325.72
2023-01-26T00:45:29.675Z,65325.19
2023-01-26T00:50:34.527Z,65293.88
2023-01-26T00:55:40.513Z,65303.34
2023-01-26T01:00:45.141Z,65306.53
2023-01-26T01:05:49.759Z,65351.34
2023-01-26T01:11:04.746Z,65280.78
2023-01-26T01:16:10.870Z,65334.31
2023-01-26T01:21:18.245Z,65340.06
2023-01-26T01:26:25.473Z,65315.69
2023-01-26T01:31:30.559Z,65331.13
2023-01-26T01:36:35.454Z,65378.94
2023-01-26T01:41:41.298Z,65430.63
2023-01-26T01:46:50.156Z,65387.13
2023-01-26T01:51:59.989Z,65314.72
2023-01-26T01:57:15.608Z,65287.47
2023-01-26T02:02:20.499Z,65314.41
2023-01-26T02:07:25.820Z,65323.03
2023-01-26T02:12:34.649Z,65219.41
2023-01-26T02:17:40.209Z,65304.00
2023-01-26T02:22:53.924Z,65266.00
2023-01-26T02:28:00.175Z,65304.94
2023-01-26T02:33:05.094Z,65364.56
2023-01-26T02:38:12.275Z,65357.56
2023-01-26T02:43:20.068Z,65341.66
2023-01-26T02:48:38.600Z,65358.72
2023-01-26T02:53:43.117Z,65348.06
2023-01-26T02:58:49.167Z,65329.44
2023-01-26T03:03:53.712Z,65291.41
2023-01-26T03:09:00.454Z,65312.81
2023-01-26T03:14:06.348Z,65311.44
2023-01-26T03:19:28.351Z,65369.25
2023-01-26T03:24:50.159Z,65438.59
2023-01-26T03:29:56.765Z,65411.22
2023-01-26T03:35:01.590Z,65364.69
2023-01-26T03:40:26.526Z,65284.72
2023-01-26T03:45:50.276Z,65323.03
2023-01-26T03:51:13.844Z,65284.31
2023-01-26T03:56:22.320Z,65253.53
2023-01-26T04:01:33.166Z,65193.88
2023-01-26T04:06:57.420Z,65184.94
2023-01-26T04:12:02.578Z,65260.38
2023-01-26T04:17:26.747Z,65265.56
2023-01-26T04:22:31.989Z,65313.88
2023-01-26T04:27:36.412Z,65277.28
2023-01-26T04:32:43.600Z,65160.06
2023-01-26T04:37:49.367Z,65267.06
2023-01-26T04:42:55.275Z,65296.00
2023-01-26T04:48:01.566Z,65274.72
2023-01-26T04:53:07.093Z,65324.13
2023-01-26T04:58:12.471Z,65328.81
2023-01-26T05:03:18.505Z,65406.75
2023-01-26T05:08:27.258Z,65445.00
2023-01-26T05:13:32.925Z,65416.78
2023-01-26T05:19:14.476Z,65346.34
2023-01-26T05:24:45.805Z,65428.59
2023-01-26T05:30:04.658Z,65456.81
2023-01-26T05:35:14.014Z,65435.84
2023-01-26T05:40:22.109Z,65433.81
2023-01-26T05:45:29.638Z,65481.66
2023-01-26T05:50:40.858Z,65489.41
2023-01-26T05:55:50.955Z,65487.53
2023-01-26T06:01:00.008Z,65493.06
2023-01-26T06:06:10.656Z,65503.81
2023-01-26T06:11:25.643Z,65481.31
2023-01-26T06:16:54.897Z,65495.00
2023-01-26T06:22:02.976Z,65542.44
2023-01-26T06:27:13.247Z,65501.59
2023-01-26T06:32:18.631Z,65463.09
2023-01-26T06:37:30.339Z,65455.31
2023-01-26T06:42:39.030Z,65437.63
2023-01-26T06:47:54.025Z,65484.88
2023-01-26T06:53:04.436Z,65463.31
2023-01-26T06:58:30.797Z,65469.94
2023-01-26T07:03:46.534Z,65455.75
2023-01-26T07:08:54.981Z,65446.59
2023-01-26T07:14:00.892Z,65480.69
2023-01-26T07:19:05.467Z,65500.53
2023-01-26T07:24:12.136Z,65525.03
2023-01-26T07:29:16.783Z,65510.03
2023-01-26T07:34:21.335Z,65507.47
2023-01-26T07:39:28.023Z,65503.09
2023-01-26T07:44:32.696Z,65521.31
2023-01-26T07:49:37.423Z,65529.84
2023-01-26T07:54:43.420Z,65539.44
2023-01-26T07:59:48.118Z,65523.25
2023-01-26T08:04:53.851Z,65556.41
2023-01-26T08:10:00.663Z,65552.31
2023-01-26T08:15:06.041Z,65547.88
2023-01-26T08:20:12.630Z,65538.91
2023-01-26T08:25:19.040Z,65554.91
2023-01-26T08:30:23.523Z,65565.91
2023-01-26T08:35:54.873Z,65585.22
2023-01-26T08:47:23.766Z,65559.06
2023-01-26T08:53:02.746Z,65533.47
2023-01-26T08:58:39.946Z,65531.34
2023-01-26T09:03:58.601Z,65545.72
2023-01-26T09:09:13.578Z,65482.41
2023-01-26T09:14:27.706Z,65534.00
2023-01-26T09:19:34.483Z,65577.28
2023-01-26T09:24:40.425Z,65575.78
2023-01-26T09:29:46.780Z,65556.94
2023-01-26T09:34:51.733Z,65571.53
2023-01-26T09:40:00.638Z,65597.56
2023-01-26T09:45:31.831Z,65544.66
2023-01-26T09:50:47.575Z,65586.91
2023-01-26T09:56:15.490Z,65627.25
2023-01-26T10:01:38.360Z,65600.13
2023-01-26T10:07:03.710Z,65613.91
2023-01-26T10:12:48.538Z,65684.88
2023-01-26T10:18:18.466Z,65621.16
2023-01-26T10:23:28.621Z,65717.75
2023-01-26T10:28:37.308Z,65659.56
2023-01-26T10:33:53.087Z,65469.06
2023-01-26T10:39:07.066Z,65496.16
2023-01-26T10:45:14.866Z,65524.59
2023-01-26T10:50:43.265Z,65529.72
2023-01-26T10:56:42.480Z,65619.34
2023-01-26T11:38:51.468Z,65529.84
2023-01-26T11:44:29.842Z,65567.69
2023-01-26T11:50:08.571Z,65634.91
2023-01-26T11:56:07.379Z,65636.97
2023-01-26T12:02:44.990Z,65440.81
2023-01-26T12:10:04.914Z,65497.31
2023-01-26T12:17:17.741Z,65529.94
2023-01-26T12:22:58.393Z,65620.31
2023-01-26T12:28:18.334Z,65543.38
2023-01-26T12:33:22.989Z,65573.91
2023-01-26T12:38:50.207Z,65601.19
2023-01-26T12:44:15.217Z,65547.44
2023-01-26T12:49:26.282Z,65554.91
2023-01-26T12:54:42.152Z,65593.41
2023-01-26T12:59:49.050Z,65545.28
2023-01-26T13:04:54.731Z,65613.66
2023-01-26T13:10:30.922Z,65576.66
2023-01-26T13:15:35.860Z,65546.25
2023-01-26T13:20:48.564Z,65566.00
2023-01-26T13:26:20.450Z,65375.41
2023-01-26T13:31:38.548Z,65425.81
2023-01-26T13:36:47.850Z,65523.44
2023-01-26T13:41:56.281Z,65410.38
2023-01-26T13:47:09.935Z,65416.03
2023-01-26T13:52:19.055Z,65270.47
2023-01-26T13:57:29.052Z,65496.16
2023-01-26T14:08:18.596Z,65485.16
2023-01-26T14:13:29.485Z,65488.69
2023-01-26T14:18:36.550Z,65455.53
2023-01-26T14:23:42.737Z,65525.56
2023-01-26T14:28:48.115Z,65479.19
2023-01-26T14:34:14.165Z,65437.63
2023-01-26T14:39:22.391Z,65417.72
2023-01-26T14:44:27.001Z,65373.72
2023-01-26T14:49:44.317Z,65480.06
2023-01-26T14:54:51.688Z,65483.47
2023-01-26T15:00:01.905Z,65550.44
2023-01-26T15:05:14.379Z,65509.59
2023-01-26T15:10:35.970Z,65564.94
2023-01-26T15:15:42.364Z,65511.19
2023-01-26T15:21:00.541Z,65556.84
2023-01-26T15:26:08.867Z,65563.88
2023-01-26T15:31:22.607Z,65523.34
2023-01-26T15:36:35.368Z,65493.50
2023-01-26T15:41:42.016Z,65477.59
2023-01-26T15:52:42.816Z,65533.38
2023-01-26T15:57:49.651Z,65462.56
2023-01-26T16:02:54.164Z,65530.28
2023-01-26T16:07:58.589Z,65490.41
2023-01-26T16:13:10.943Z,65572.41
2023-01-26T16:18:15.959Z,65533.13
2023-01-26T16:23:22.444Z,65550.44
2023-01-26T16:28:28.428Z,65556.31
2023-01-26T16:33:32.560Z,65556.41
2023-01-26T16:38:37.169Z,65579.78
2023-01-26T16:43:44.017Z,65535.16
2023-01-26T16:48:48.519Z,65590.72
2023-01-26T16:53:53.523Z,65534.09
2023-01-26T16:58:59.878Z,65558.09
2023-01-26T17:04:05.413Z,65514.50
2023-01-26T17:09:11.189Z,65568.66
2023-01-26T17:14:16.835Z,65599.81
2023-01-26T17:19:21.361Z,65553.84
2023-01-26T17:24:25.998Z,65557.13
2023-01-26T17:29:33.866Z,65569.63
2023-01-26T17:34:38.518Z,65576.13
2023-01-26T17:39:44.794Z,65561.84
2023-01-26T17:44:54.187Z,65551.06
2023-01-26T17:49:58.760Z,65604.94
2023-01-26T17:55:06.348Z,65561.31
2023-01-26T18:00:14.019Z,65593.75
2023-01-26T18:05:18.453Z,65585.22
2023-01-26T18:10:22.891Z,65584.13
2023-01-26T18:15:28.670Z,65536.75
2023-01-26T18:20:33.032Z,65575.16
2023-01-26T18:25:37.553Z,65551.16
2023-01-26T18:30:43.661Z,65548.06
2023-01-26T18:35:48.099Z,65475.81
2023-01-26T18:40:52.723Z,65550.63
2023-01-26T18:45:59.160Z,65563.44
2023-01-26T18:51:03.889Z,65536.22
2023-01-26T18:56:10.903Z,65543.41
2023-01-26T19:01:18.880Z,65513.31
2023-01-26T19:06:24.911Z,65503.28
2023-01-26T19:11:32.074Z,65562.81
2023-01-26T19:16:38.434Z,65582.97
2023-01-26T19:21:42.937Z,65599.72
2023-01-26T19:26:47.318Z,65584.59
2023-01-26T19:31:53.096Z,65558.44
2023-01-26T19:36:57.687Z,65558.09
2023-01-26T19:42:02.142Z,65572.41
2023-01-26T19:47:08.083Z,65577.28
2023-01-26T19:52:12.824Z,65541.03
2023-01-26T19:57:17.334Z,65544.75
2023-01-26T20:02:23.241Z,65581.03
2023-01-26T20:07:27.724Z,65560.25
2023-01-26T20:12:32.620Z,65575.50
2023-01-26T20:17:38.649Z,65588.94
2023-01-26T20:22:42.723Z,65561.84
2023-01-26T20:27:47.204Z,65601.19
2023-01-26T20:32:55.448Z,65586.28
2023-01-26T20:38:00.613Z,65555.34
2023-01-26T20:43:05.534Z,65567.69
2023-01-26T20:48:11.515Z,65516.09
2023-01-26T20:53:16.129Z,65425.91
2023-01-26T20:58:20.684Z,65462.66
2023-01-26T21:03:26.710Z,65530.69
2023-01-26T21:08:31.492Z,65411.00
2023-01-26T21:13:36.123Z,65439.75
2023-01-26T21:18:42.548Z,65448.09
2023-01-26T21:23:47.537Z,65425.91
2023-01-26T21:28:53.097Z,65493.41
2023-01-26T21:34:00.199Z,65458.41
2023-01-26T21:39:06.684Z,65449.16
2023-01-26T21:44:12.998Z,65494.56
2023-01-26T21:49:19.669Z,65531.44
2023-01-26T21:54:24.449Z,65469.69
2023-01-26T21:59:30.726Z,65531.44
2023-01-26T22:04:36.823Z,65536.34
2023-01-26T22:09:41.592Z,65521.75
2023-01-26T22:14:46.816Z,65509.91
2023-01-26T22:19:53.708Z,65521.94
2023-01-26T22:24:58.253Z,65502.47
2023-01-26T22:30:02.916Z,65353.38
2023-01-26T22:35:09.996Z,65347.09
2023-01-26T22:40:15.536Z,65446.16
2023-01-26T22:45:20.220Z,65498.03
2023-01-26T22:50:28.131Z,65522.91
2023-01-26T22:55:32.610Z,65509.91
2023-01-26T23:00:38.385Z,65371.91
2023-01-26T23:05:45.696Z,65344.44
2023-01-26T23:10:50.261Z,65347.09
2023-01-26T23:15:54.731Z,65357.75
2023-01-26T23:21:00.874Z,65274.50
2023-01-26T23:26:05.546Z,65229.91
2023-01-26T23:31:11.173Z,65183.34
2023-01-26T23:36:17.743Z,65197.06
2023-01-26T23:41:22.175Z,65199.59
2023-01-26T23:46:26.713Z,65135.19
2023-01-26T23:51:33.014Z,65156.97
2023-01-26T23:56:37.641Z,65180.38
